createdAt,value
2018-01-31T01:52:31.560Z,16.20
2018-01-31T01:54:58.701Z,16.20
2018-01-31T01:57:25.877Z,16.20
2018-01-31T01:59:53.004Z,16.20
2018-01-31T02:02:20.176Z,16.20
2018-01-31T02:04:47.309Z,16.20
2018-01-31T02:07:14.608Z,16.20
2018-01-31T02:09:41.739Z,16.10
2018-01-31T02:12:09.857Z,16.20
2018-01-31T02:14:38.652Z,16.20
2018-01-31T02:17:06.545Z,16.20
2018-01-31T02:19:33.675Z,16.10
2018-01-31T02:22:01.576Z,16.10
2018-01-31T02:24:28.710Z,16.10
2018-01-31T02:26:55.836Z,16.10
2018-01-31T02:29:24.681Z,16.10
2018-01-31T02:31:51.816Z,16.00
2018-01-31T02:34:18.953Z,16.00
2018-01-31T02:36:46.076Z,16.00
2018-01-31T02:39:19.809Z,16.00
2018-01-31T02:41:46.940Z,16.00
2018-01-31T02:44:14.844Z,16.00
2018-01-31T02:46:41.976Z,16.00
2018-01-31T02:49:09.144Z,16.00
2018-01-31T02:51:36.268Z,16.00
2018-01-31T02:54:04.376Z,16.00
2018-01-31T02:56:32.397Z,16.00
2018-01-31T02:59:00.293Z,16.00
2018-01-31T03:01:28.211Z,16.00
2018-01-31T03:03:58.289Z,16.00
2018-01-31T03:06:25.424Z,16.00
2018-01-31T03:08:52.561Z,16.00
2018-01-31T03:11:20.468Z,16.00
2018-01-31T03:13:48.393Z,16.00
2018-01-31T03:16:16.325Z,16.00
2018-01-31T03:18:43.456Z,15.90
2018-01-31T03:21:10.593Z,16.00
2018-01-31T03:23:37.729Z,16.10
2018-01-31T03:26:04.860Z,16.20
2018-01-31T03:28:32.760Z,16.40
2018-01-31T03:30:59.894Z,16.40
2018-01-31T03:33:27.032Z,16.40
2018-01-31T03:35:55.840Z,16.40
2018-01-31T03:38:22.969Z,16.40
2018-01-31T03:40:50.868Z,16.20
2018-01-31T03:43:18.000Z,16.20
2018-01-31T03:45:45.901Z,16.10
2018-01-31T03:48:13.848Z,16.10
2018-01-31T03:50:40.984Z,16.10
2018-01-31T03:53:08.882Z,16.10
2018-01-31T03:55:36.016Z,16.10
2018-01-31T03:58:03.152Z,16.10
2018-01-31T04:00:31.048Z,16.00
2018-01-31T04:02:58.184Z,16.00
2018-01-31T04:05:25.340Z,16.00
2018-01-31T04:07:52.469Z,16.00
2018-01-31T04:10:20.364Z,16.00
2018-01-31T04:12:47.496Z,16.00
2018-01-31T04:15:16.292Z,16.00
2018-01-31T04:17:44.189Z,16.00
2018-01-31T04:20:11.335Z,16.00
2018-01-31T04:22:38.464Z,16.00
2018-01-31T04:25:06.512Z,15.90
2018-01-31T04:27:34.417Z,16.00
2018-01-31T04:30:01.553Z,16.00
2018-01-31T04:32:28.681Z,16.00
2018-01-31T04:34:55.824Z,16.00
2018-01-31T04:37:22.989Z,16.00
2018-01-31T04:39:50.888Z,15.90
2018-01-31T04:42:18.024Z,15.90
2018-01-31T04:44:45.161Z,15.90
2018-01-31T04:47:13.062Z,15.90
2018-01-31T04:49:40.214Z,15.90
2018-01-31T04:52:07.348Z,15.80
2018-01-31T04:54:34.480Z,15.80
2018-01-31T04:57:02.389Z,15.80
2018-01-31T04:59:29.523Z,15.80
2018-01-31T05:01:56.656Z,15.80
2018-01-31T05:04:24.557Z,15.80
2018-01-31T05:06:51.685Z,15.80
2018-01-31T05:09:18.812Z,15.80
2018-01-31T05:11:45.979Z,15.80
2018-01-31T05:14:13.879Z,15.90
2018-01-31T05:16:41.052Z,15.90
2018-01-31T05:19:08.180Z,16.00
2018-01-31T05:21:35.314Z,16.10
2018-01-31T05:24:02.440Z,16.10
2018-01-31T05:26:30.343Z,16.00
2018-01-31T05:28:58.508Z,16.00
2018-01-31T05:31:25.636Z,16.00
2018-01-31T05:33:53.548Z,16.00
2018-01-31T05:36:20.680Z,16.00
2018-01-31T05:38:47.817Z,16.00
2018-01-31T05:41:15.769Z,16.00
2018-01-31T05:43:43.675Z,15.90
2018-01-31T05:46:10.804Z,15.90
2018-01-31T05:48:38.704Z,15.90
2018-01-31T05:51:06.628Z,15.90
2018-01-31T05:53:35.516Z,15.90
2018-01-31T05:56:04.311Z,15.90
2018-01-31T05:58:33.129Z,15.80
2018-01-31T06:01:00.269Z,15.80
2018-01-31T06:03:28.182Z,15.90
2018-01-31T06:05:56.220Z,15.90
2018-01-31T06:08:24.175Z,15.90
2018-01-31T06:10:52.076Z,15.90
2018-01-31T06:13:19.246Z,15.90
2018-01-31T06:15:47.190Z,15.80
2018-01-31T06:18:14.324Z,15.80
2018-01-31T06:20:42.261Z,15.80
2018-01-31T06:23:10.324Z,15.90
2018-01-31T06:25:38.377Z,15.80
2018-01-31T06:28:05.507Z,15.80
2018-01-31T06:30:32.713Z,15.90
2018-01-31T06:33:00.613Z,16.10
2018-01-31T06:35:27.748Z,16.10
2018-01-31T06:37:55.648Z,16.20
2018-01-31T06:40:22.798Z,16.20
2018-01-31T06:42:49.951Z,16.20
2018-01-31T06:45:17.096Z,16.20
2018-01-31T06:47:44.256Z,16.20
2018-01-31T06:50:12.297Z,16.20
2018-01-31T06:52:39.424Z,16.20
2018-01-31T06:55:07.346Z,16.10
2018-01-31T06:57:34.476Z,16.10
2018-01-31T07:00:01.616Z,16.10
2018-01-31T07:02:29.674Z,16.10
2018-01-31T07:04:58.588Z,16.00
2018-01-31T07:07:25.744Z,16.00
2018-01-31T07:09:52.881Z,16.00
2018-01-31T07:12:20.776Z,16.00
2018-01-31T07:14:47.946Z,16.00
2018-01-31T07:17:15.097Z,16.10
2018-01-31T07:19:42.301Z,16.00
2018-01-31T07:22:10.201Z,16.00
2018-01-31T07:24:38.122Z,16.00
2018-01-31T07:27:06.036Z,16.00
2018-01-31T07:29:33.167Z,16.00
2018-01-31T07:32:00.304Z,16.00
2018-01-31T07:34:28.204Z,16.00
2018-01-31T07:36:55.339Z,16.00
2018-01-31T07:39:22.473Z,16.00
2018-01-31T07:41:50.377Z,16.00
2018-01-31T07:44:17.546Z,15.90
2018-01-31T07:46:44.674Z,15.90
2018-01-31T07:49:12.584Z,15.90
2018-01-31T07:51:39.716Z,15.90
2018-01-31T07:54:06.889Z,16.00
2018-01-31T07:56:34.070Z,16.00
2018-01-31T07:59:01.952Z,15.90
2018-01-31T08:01:29.087Z,15.90
2018-01-31T08:03:56.989Z,15.90
2018-01-31T08:06:24.893Z,15.90
2018-01-31T08:08:52.028Z,15.80
2018-01-31T08:11:19.162Z,15.80
2018-01-31T08:13:46.305Z,15.80
2018-01-31T08:16:13.437Z,15.80
2018-01-31T08:18:40.572Z,15.80
2018-01-31T08:21:08.487Z,16.00
2018-01-31T08:23:35.622Z,16.00
2018-01-31T08:26:02.752Z,16.10
2018-01-31T08:28:30.028Z,16.10
2018-01-31T08:30:57.184Z,16.20
2018-01-31T08:33:24.322Z,16.20
2018-01-31T08:35:51.452Z,16.20
2018-01-31T08:38:19.352Z,16.10
2018-01-31T08:40:46.498Z,16.10
2018-01-31T08:43:13.634Z,16.10
2018-01-31T08:45:40.762Z,16.10
2018-01-31T08:48:08.665Z,16.10
2018-01-31T08:50:35.793Z,16.10
2018-01-31T08:53:03.694Z,16.10
2018-01-31T08:55:30.831Z,16.10
2018-01-31T08:57:57.968Z,16.00
2018-01-31T09:00:25.100Z,16.00
2018-01-31T09:02:53.000Z,16.00
2018-01-31T09:05:20.128Z,16.00
2018-01-31T09:07:48.029Z,16.00
2018-01-31T09:10:15.175Z,16.00
2018-01-31T09:12:42.310Z,16.00
2018-01-31T09:15:09.452Z,16.00
2018-01-31T09:17:37.354Z,16.10
2018-01-31T09:20:04.483Z,16.10
2018-01-31T09:22:31.736Z,16.10
2018-01-31T09:24:58.873Z,16.00
2018-01-31T09:27:26.773Z,16.00
2018-01-31T09:29:53.940Z,16.00
2018-01-31T09:32:21.072Z,16.00
2018-01-31T09:34:48.196Z,15.90
2018-01-31T09:37:16.098Z,16.00
2018-01-31T09:39:43.272Z,16.00
2018-01-31T09:42:10.404Z,16.20
2018-01-31T09:44:37.648Z,16.20
2018-01-31T09:47:04.771Z,16.30
2018-01-31T09:49:32.700Z,16.30
2018-01-31T09:52:00.621Z,16.30
2018-01-31T09:54:28.647Z,16.20
2018-01-31T09:56:55.816Z,16.20
2018-01-31T09:59:23.712Z,16.20
2018-01-31T10:01:50.835Z,16.20
2018-01-31T10:04:18.738Z,16.30
2018-01-31T10:06:45.913Z,16.20
2018-01-31T10:09:13.047Z,16.20
2018-01-31T10:11:40.180Z,16.10
2018-01-31T10:14:07.308Z,16.10
2018-01-31T10:16:36.100Z,16.10
2018-01-31T10:19:04.029Z,16.10
2018-01-31T10:21:31.960Z,16.10
2018-01-31T10:23:59.980Z,16.20
2018-01-31T10:26:27.113Z,16.20
2018-01-31T10:28:55.211Z,16.10
2018-01-31T10:31:22.414Z,16.10
2018-01-31T10:33:49.576Z,16.10
2018-01-31T10:36:17.480Z,16.10
2018-01-31T10:38:44.645Z,16.10
2018-01-31T10:41:13.331Z,16.10
2018-01-31T10:43:40.548Z,16.10
2018-01-31T10:46:07.740Z,16.10
2018-01-31T10:48:35.636Z,16.10
2018-01-31T10:51:03.713Z,16.10
2018-01-31T10:53:31.741Z,16.10
2018-01-31T10:58:27.782Z,16.10
2018-01-31T11:00:55.733Z,16.10
2018-01-31T11:03:22.860Z,16.00
2018-01-31T11:05:50.029Z,16.00
2018-01-31T11:08:17.194Z,16.00
2018-01-31T11:10:44.365Z,16.10
2018-01-31T11:13:13.213Z,16.00
2018-01-31T11:15:40.341Z,16.00
2018-01-31T11:18:08.296Z,16.00
2018-01-31T11:20:37.025Z,16.10
2018-01-31T11:23:05.005Z,16.10
2018-01-31T11:25:32.902Z,16.10
2018-01-31T11:28:00.859Z,16.30
2018-01-31T11:30:28.026Z,16.30
2018-01-31T11:32:56.855Z,16.50
2018-01-31T11:35:24.015Z,16.50
2018-01-31T11:37:51.139Z,16.50
2018-01-31T11:40:18.312Z,16.40
2018-01-31T11:42:45.445Z,16.30
2018-01-31T11:45:13.563Z,16.20
2018-01-31T11:47:40.698Z,16.20
2018-01-31T11:50:07.865Z,16.20
2018-01-31T11:52:34.992Z,16.20
2018-01-31T11:55:02.156Z,16.20
2018-01-31T11:57:29.327Z,16.20
2018-01-31T11:59:56.461Z,16.20
2018-01-31T12:02:23.644Z,16.20
2018-01-31T12:04:50.772Z,16.20
2018-01-31T12:07:17.928Z,16.20
2018-01-31T12:09:45.065Z,16.20
2018-01-31T12:12:18.135Z,16.20
2018-01-31T12:14:51.052Z,16.20
2018-01-31T12:17:18.177Z,16.20
2018-01-31T12:20:06.268Z,16.20
2018-01-31T12:22:45.392Z,16.10
2018-01-31T12:25:19.416Z,16.10
2018-01-31T12:27:53.293Z,16.20
2018-01-31T12:30:26.344Z,16.20
2018-01-31T12:32:59.342Z,16.20
2018-01-31T12:35:32.325Z,16.20
2018-01-31T12:38:05.440Z,16.20
2018-01-31T12:40:32.803Z,16.20
2018-01-31T12:43:00.644Z,16.20
2018-01-31T12:45:28.288Z,16.10
2018-01-31T12:47:56.180Z,16.20
2018-01-31T12:50:29.126Z,16.20
2018-01-31T12:53:02.837Z,16.10
2018-01-31T12:55:36.475Z,16.10
2018-01-31T12:58:09.448Z,16.10
2018-01-31T13:00:42.536Z,16.10
2018-01-31T13:03:15.501Z,16.20
2018-01-31T13:05:49.143Z,16.20
2018-01-31T13:08:22.084Z,16.20
2018-01-31T13:10:56.608Z,16.10
2018-01-31T13:13:30.436Z,16.10
2018-01-31T13:16:13.717Z,16.10
2018-01-31T13:18:46.773Z,16.10
2018-01-31T13:21:19.862Z,16.10
2018-01-31T13:23:52.748Z,16.20
2018-01-31T13:26:25.677Z,16.20
2018-01-31T13:28:58.708Z,16.30
2018-01-31T13:31:36.723Z,16.50
2018-01-31T13:34:09.877Z,16.60
2018-01-31T13:36:43.700Z,16.60
2018-01-31T13:39:16.756Z,16.60
2018-01-31T13:41:49.760Z,16.60
2018-01-31T13:44:23.479Z,16.40
2018-01-31T13:46:57.156Z,16.40
2018-01-31T13:49:30.088Z,16.50
2018-01-31T13:52:03.025Z,16.50
2018-01-31T13:54:36.206Z,16.50
2018-01-31T13:57:09.255Z,16.50
2018-01-31T13:59:42.199Z,16.50
2018-01-31T14:02:15.246Z,16.50
2018-01-31T14:04:48.357Z,16.40
2018-01-31T14:07:22.130Z,16.40
2018-01-31T14:09:55.127Z,16.40
2018-01-31T14:12:28.224Z,16.40
2018-01-31T14:15:01.346Z,16.40
2018-01-31T14:17:34.489Z,16.40
2018-01-31T14:20:08.425Z,16.40
2018-01-31T14:22:41.439Z,16.30
2018-01-31T14:25:14.460Z,16.30
2018-01-31T14:27:48.304Z,16.30
2018-01-31T14:30:21.242Z,16.30
2018-01-31T14:32:55.005Z,16.40
2018-01-31T14:35:27.978Z,16.40
2018-01-31T14:37:56.765Z,16.40
2018-01-31T14:40:23.636Z,16.40
2018-01-31T14:42:50.522Z,16.30
2018-01-31T14:45:18.160Z,16.30
2018-01-31T14:47:45.952Z,16.40
2018-01-31T14:50:13.649Z,16.40
2018-01-31T14:52:41.442Z,16.40
2018-01-31T14:55:09.129Z,16.50
2018-01-31T14:57:37.612Z,16.40
2018-01-31T15:00:05.299Z,16.40
2018-01-31T15:02:32.181Z,16.40
2018-01-31T15:04:59.100Z,16.40
2018-01-31T15:07:26.880Z,16.40
2018-01-31T15:09:53.797Z,16.40
2018-01-31T15:12:21.485Z,16.40
2018-01-31T15:14:49.128Z,16.30
2018-01-31T15:17:16.809Z,16.30
2018-01-31T15:19:44.467Z,16.30
2018-01-31T15:22:11.380Z,16.30
2018-01-31T15:24:39.821Z,16.30
2018-01-31T15:27:07.640Z,16.30
2018-01-31T15:29:36.053Z,16.40
2018-01-31T15:32:03.764Z,16.40
2018-01-31T15:34:31.444Z,16.60
2018-01-31T15:36:59.085Z,16.70
2018-01-31T15:39:25.960Z,16.70
2018-01-31T15:41:52.831Z,16.80
2018-01-31T15:44:19.756Z,16.80
2018-01-31T15:46:46.876Z,16.70
2018-01-31T15:49:14.521Z,16.60
2018-01-31T15:51:42.168Z,16.60
2018-01-31T15:54:09.809Z,16.60
2018-01-31T15:56:37.032Z,16.60
2018-01-31T15:59:04.674Z,16.60
2018-01-31T16:01:32.360Z,16.50
2018-01-31T16:04:00.038Z,16.50
2018-01-31T16:06:26.913Z,16.40
2018-01-31T16:08:53.792Z,16.40
2018-01-31T16:11:20.744Z,16.40
2018-01-31T16:13:48.384Z,16.50
2018-01-31T16:16:15.512Z,16.50
2018-01-31T16:18:48.540Z,16.50
2018-01-31T16:21:20.493Z,16.40
2018-01-31T16:23:47.624Z,16.40
2018-01-31T16:26:14.749Z,16.40
2018-01-31T16:28:47.843Z,16.50
2018-01-31T16:31:16.808Z,16.40
2018-01-31T16:33:44.763Z,16.40
2018-01-31T16:36:12.659Z,16.30
2018-01-31T16:38:40.613Z,16.30
2018-01-31T16:41:08.509Z,16.40
2018-01-31T16:43:35.641Z,16.40
2018-01-31T16:46:02.768Z,16.40
2018-01-31T16:48:31.609Z,16.30
2018-01-31T16:50:59.776Z,16.30
2018-01-31T16:53:27.005Z,16.30
2018-01-31T16:55:54.128Z,16.30
2018-01-31T16:58:22.029Z,16.60
2018-01-31T17:00:49.200Z,16.60
2018-01-31T17:03:16.420Z,16.70
2018-01-31T17:05:44.325Z,16.70
2018-01-31T17:08:11.466Z,16.70
2018-01-31T17:10:39.515Z,16.60
2018-01-31T17:13:06.644Z,16.50
2018-01-31T17:15:35.480Z,16.50
2018-01-31T17:18:02.604Z,16.50
2018-01-31T17:20:30.542Z,16.50
2018-01-31T17:22:57.698Z,16.50
2018-01-31T17:25:24.838Z,16.60
2018-01-31T17:27:51.976Z,16.50
2018-01-31T17:30:20.772Z,16.30
2018-01-31T17:32:48.540Z,16.30
2018-01-31T17:35:16.580Z,16.30
2018-01-31T17:37:43.712Z,16.30
2018-01-31T17:40:10.853Z,16.40
2018-01-31T17:42:37.987Z,16.30
2018-01-31T17:45:05.890Z,16.30
2018-01-31T17:47:33.020Z,16.30
2018-01-31T17:50:00.924Z,16.40
2018-01-31T17:52:28.140Z,16.40
2018-01-31T17:54:56.078Z,16.70
2018-01-31T17:57:24.002Z,16.80
2018-01-31T17:59:51.169Z,16.80
2018-01-31T18:02:18.385Z,16.90
2018-01-31T18:04:45.519Z,16.90
2018-01-31T18:07:14.324Z,16.80
2018-01-31T18:09:42.219Z,16.70
2018-01-31T18:12:09.353Z,16.60
2018-01-31T18:14:36.545Z,16.70
2018-01-31T18:17:03.680Z,16.70
2018-01-31T18:19:30.809Z,16.60
2018-01-31T18:21:58.053Z,16.60
2018-01-31T18:24:25.201Z,16.60
2018-01-31T18:26:53.173Z,16.40
2018-01-31T18:29:20.347Z,16.40
2018-01-31T18:31:48.294Z,16.40
2018-01-31T18:34:15.441Z,16.40
2018-01-31T18:36:43.336Z,16.50
2018-01-31T18:39:10.561Z,16.40
2018-01-31T18:41:38.532Z,16.40
2018-01-31T18:44:06.491Z,16.30
2018-01-31T18:46:33.657Z,16.30
2018-01-31T18:49:00.788Z,16.30
2018-01-31T18:51:28.695Z,16.30
2018-01-31T18:53:55.926Z,16.30
2018-01-31T18:56:23.829Z,16.30
2018-01-31T18:58:50.965Z,16.30
2018-01-31T19:01:18.195Z,16.30
2018-01-31T19:03:46.093Z,16.20
2018-01-31T19:06:13.220Z,16.20
2018-01-31T19:08:41.191Z,16.30
2018-01-31T19:11:09.089Z,16.20
2018-01-31T19:13:37.137Z,16.30
2018-01-31T19:16:05.080Z,16.40
2018-01-31T19:18:32.977Z,16.70
2018-01-31T19:21:00.112Z,16.70
2018-01-31T19:23:28.009Z,16.80
2018-01-31T19:25:55.180Z,16.80
2018-01-31T19:28:23.236Z,16.80
2018-01-31T19:30:51.272Z,16.70
2018-01-31T19:33:20.112Z,16.60
2018-01-31T19:35:47.284Z,16.60
2018-01-31T19:38:14.414Z,16.60
2018-01-31T19:40:41.581Z,16.50
2018-01-31T19:43:08.711Z,16.50
2018-01-31T19:45:35.852Z,16.50
2018-01-31T19:48:03.018Z,16.50
2018-01-31T19:50:30.920Z,16.60
2018-01-31T19:52:58.060Z,16.50
2018-01-31T19:55:26.016Z,16.40
2018-01-31T19:57:53.964Z,16.40
2018-01-31T20:00:21.104Z,16.40
2018-01-31T20:02:48.289Z,16.40
2018-01-31T20:05:16.223Z,16.40
2018-01-31T20:07:44.304Z,16.40
2018-01-31T20:10:11.469Z,16.40
2018-01-31T20:12:39.468Z,16.40
2018-01-31T20:15:07.543Z,16.40
2018-01-31T20:17:35.440Z,16.30
2018-01-31T20:20:03.368Z,16.30
2018-01-31T20:22:30.528Z,16.30
2018-01-31T20:24:57.696Z,16.30
2018-01-31T20:27:25.667Z,16.40
2018-01-31T20:29:54.498Z,16.30
2018-01-31T20:32:21.629Z,16.30
2018-01-31T20:34:49.704Z,16.30
2018-01-31T20:37:16.850Z,16.30
2018-01-31T20:39:43.980Z,16.30
2018-01-31T20:42:11.877Z,16.40
2018-01-31T20:44:39.019Z,16.40
2018-01-31T20:47:06.148Z,16.40
2018-01-31T20:49:34.089Z,16.30
2018-01-31T20:52:02.034Z,16.30
2018-01-31T20:54:29.256Z,16.30
2018-01-31T20:56:57.662Z,16.30
2018-01-31T20:59:29.994Z,16.30
2018-01-31T21:01:58.351Z,16.40
2018-01-31T21:04:26.785Z,16.40
2018-01-31T21:06:57.408Z,16.50
2018-01-31T21:09:26.462Z,16.60
2018-01-31T21:12:05.729Z,16.70
2018-01-31T21:14:40.173Z,16.70
2018-01-31T21:17:07.583Z,16.70
2018-01-31T21:19:37.471Z,16.70
2018-01-31T21:22:06.374Z,16.70
2018-01-31T21:24:35.260Z,16.60
2018-01-31T21:27:02.663Z,16.60
2018-01-31T21:29:30.663Z,16.60
2018-01-31T21:31:57.945Z,16.60
2018-01-31T21:34:25.402Z,16.60
2018-01-31T21:36:52.952Z,16.60
2018-01-31T21:39:20.385Z,16.60
2018-01-31T21:41:47.778Z,16.60
2018-01-31T21:44:15.852Z,16.60
2018-01-31T21:46:44.738Z,16.50
2018-01-31T21:49:12.009Z,16.50
2018-01-31T21:51:39.319Z,16.50
2018-01-31T21:54:07.343Z,16.50
2018-01-31T21:56:36.277Z,16.50
2018-01-31T21:59:03.431Z,16.50
2018-01-31T22:01:30.836Z,16.50
2018-01-31T22:03:57.972Z,16.50
2018-01-31T22:06:25.100Z,16.50
2018-01-31T22:08:52.342Z,16.60
2018-01-31T22:11:20.238Z,16.60
2018-01-31T22:13:47.370Z,16.60
2018-01-31T22:16:15.309Z,16.60
2018-01-31T22:18:44.228Z,16.60
2018-01-31T22:21:11.404Z,16.60
2018-01-31T22:23:39.433Z,16.50
2018-01-31T22:26:07.337Z,16.50
2018-01-31T22:28:34.465Z,16.50
2018-01-31T22:31:01.592Z,16.50
2018-01-31T22:33:28.728Z,16.50
2018-01-31T22:35:55.865Z,16.50
2018-01-31T22:38:23.000Z,16.50
2018-01-31T22:40:50.131Z,16.50
2018-01-31T22:43:17.268Z,16.50
2018-01-31T22:45:44.439Z,16.50
2018-01-31T22:48:11.606Z,16.50
2018-01-31T22:50:38.741Z,16.50
2018-01-31T22:53:05.867Z,16.50
2018-01-31T22:55:33.763Z,16.60
2018-01-31T22:58:00.897Z,16.50
2018-01-31T23:00:28.033Z,16.50
2018-01-31T23:02:56.037Z,16.50
2018-01-31T23:05:23.213Z,16.50
2018-01-31T23:07:50.344Z,16.60
2018-01-31T23:10:17.492Z,16.60
2018-01-31T23:12:50.385Z,16.80
2018-01-31T23:15:18.528Z,16.90
2018-01-31T23:17:52.111Z,16.90
2018-01-31T23:20:20.864Z,16.90
2018-01-31T23:22:48.796Z,16.90
2018-01-31T23:25:15.929Z,16.90
2018-01-31T23:27:44.964Z,16.90
2018-01-31T23:30:12.122Z,16.90
2018-01-31T23:32:39.288Z,16.80
2018-01-31T23:35:07.221Z,16.80
2018-01-31T23:37:34.384Z,16.80
2018-01-31T23:40:01.638Z,16.80
2018-01-31T23:42:28.796Z,16.80
2018-01-31T23:44:55.932Z,16.80
2018-01-31T23:47:23.125Z,16.80
2018-01-31T23:49:50.256Z,16.70
2018-01-31T23:52:17.416Z,16.70
2018-01-31T23:54:45.377Z,16.70
2018-01-31T23:57:13.429Z,16.70
2018-01-31T23:59:40.560Z,16.70
